Terminal Aerodrome Forecast
Issued by NWS

Home | Current Version | Previous Version | Graphics & Text | Print | Product List | Glossary On
Versions: 1 2 3 4 5 6 7 8 9 10 11 12 13
000
FTUS42 KMHX 291727
TAFPGV
TAF
KPGV 291727Z 2918/3018 29008KT P6SM SKC
     FM300000 00000KT P6SM VCTS SCT050CB
     FM300700 00000KT P6SM SCT025 BKN060
     FM301200 24006KT P6SM BKN080
      AMD LTD TO CLD VIS AND WIND=

USA.gov is the U.S. government's official web portal to all federal, state and local government web resources and services.